Time;durP1;ratioP1;P1;durP2;ratioP2;P2;SDS_P1;SDS_P2;PMS_P1;PMS_P2;Temp;Humidity;BMP_temperature;BMP_pressure;BME280_temperature;BME280_humidity;BME280_pressure;Samples;Min_cycle;Max_cycle;Signal;HPM_P1;HPM_P2
2024/01/17 00:01:14;;;;;;;7.47;4.07;;;;;;;0.69;63.08;100268.50;5075793;28;20807;-80
2024/01/17 00:03:40;;;;;;;4.50;4.07;;;;;;;0.69;62.88;100261.66;5076626;28;20219;-80
2024/01/17 00:06:06;;;;;;;8.23;4.13;;;;;;;0.71;64.26;100257.41;5076743;28;20262;-81
2024/01/17 00:08:33;;;;;;;6.27;4.10;;;;;;;0.78;64.04;100249.00;5081961;28;20205;-80
2024/01/17 00:11:01;;;;;;;5.93;3.50;;;;;;;0.79;65.43;100235.34;5085336;28;20208;-81
2024/01/17 00:13:27;;;;;;;4.40;4.00;;;;;;;0.82;65.40;100215.66;5076747;28;20205;-81
2024/01/17 00:15:55;;;;;;;8.03;5.87;;;;;;;0.79;65.21;100203.63;5076589;28;20216;-81
2024/01/17 00:18:21;;;;;;;4.90;4.43;;;;;;;0.82;64.54;100205.38;5076058;28;20278;-81
2024/01/17 00:20:47;;;;;;;4.87;4.07;;;;;;;0.85;64.33;100197.72;5074111;28;20205;-81
2024/01/17 00:23:14;;;;;;;5.43;3.30;;;;;;;0.78;64.48;100199.34;5070942;28;20258;-81
2024/01/17 00:25:40;;;;;;;3.73;3.40;;;;;;;0.77;64.99;100197.59;5066498;28;20237;-81
2024/01/17 00:28:06;;;;;;;5.13;4.33;;;;;;;0.79;64.38;100195.91;5069279;28;20209;-81
2024/01/17 00:30:33;;;;;;;5.37;4.37;;;;;;;0.79;62.76;100211.31;5076562;28;20205;-80
2024/01/17 00:33:00;;;;;;;5.53;4.03;;;;;;;0.79;62.84;100219.03;5077088;28;20197;-81
2024/01/17 00:35:27;;;;;;;6.07;4.67;;;;;;;0.78;63.98;100209.59;5079990;28;20213;-81
2024/01/17 00:37:53;;;;;;;4.30;3.83;;;;;;;0.75;63.29;100199.25;5079815;28;20675;-81
2024/01/17 00:40:20;;;;;;;4.33;3.63;;;;;;;0.52;62.56;100204.88;5079781;28;20683;-81
2024/01/17 00:42:46;;;;;;;6.40;4.30;;;;;;;0.67;63.28;100211.97;5079604;28;20208;-80
2024/01/17 00:45:13;;;;;;;7.57;4.53;;;;;;;0.63;63.71;100207.63;5080104;28;20286;-81
2024/01/17 00:47:39;;;;;;;4.87;3.53;;;;;;;0.59;63.45;100205.84;5080045;28;20220;-81
2024/01/17 00:50:07;;;;;;;8.50;5.97;;;;;;;0.63;63.39;100194.78;5079275;28;20213;-81
2024/01/17 00:52:34;;;;;;;5.40;4.70;;;;;;;0.67;63.97;100191.44;5072195;28;20208;-81
2024/01/17 00:55:00;;;;;;;6.77;3.07;;;;;;;0.67;65.41;100177.72;5079269;28;20205;-81
2024/01/17 00:57:26;;;;;;;4.70;3.33;;;;;;;0.64;65.46;100152.88;5079698;28;20650;-81
2024/01/17 00:59:53;;;;;;;5.70;3.40;;;;;;;0.49;64.79;100135.47;5080001;28;20570;-82
2024/01/17 01:02:19;;;;;;;3.60;2.80;;;;;;;0.42;63.56;100148.19;5079613;28;20200;-82
2024/01/17 01:04:45;;;;;;;4.90;3.43;;;;;;;0.44;63.86;100156.78;5079542;28;20544;-81
2024/01/17 01:07:15;;;;;;;5.23;3.53;;;;;;;0.37;64.07;100159.25;5079569;28;20225;-80
2024/01/17 01:09:41;;;;;;;4.50;3.60;;;;;;;0.34;64.17;100166.03;5079491;28;20306;-80
2024/01/17 01:12:07;;;;;;;4.20;3.40;;;;;;;0.36;64.22;100159.22;5079859;28;20217;-81
2024/01/17 01:14:34;;;;;;;8.03;3.83;;;;;;;0.04;64.15;100159.50;5080424;28;20212;-81
2024/01/17 01:17:00;;;;;;;3.60;3.27;;;;;;;0.10;64.20;100157.06;5080364;28;20217;-80
2024/01/17 01:19:26;;;;;;;6.33;3.87;;;;;;;0.16;63.67;100156.31;5078490;28;20201;-81
2024/01/17 01:21:53;;;;;;;3.87;3.07;;;;;;;-0.05;62.90;100154.19;5070821;28;20231;-80
2024/01/17 01:24:20;;;;;;;5.37;3.53;;;;;;;0.09;63.95;100142.47;5079831;28;20254;-80
2024/01/17 01:26:47;;;;;;;7.33;4.17;;;;;;;0.14;65.41;100137.41;5079580;28;20278;-81
2024/01/17 01:29:14;;;;;;;7.10;3.70;;;;;;;0.15;63.60;100134.03;5079523;28;20205;-81
2024/01/17 01:31:40;;;;;;;4.03;3.23;;;;;;;0.05;64.30;100134.69;5063430;28;20236;-81
2024/01/17 01:34:06;;;;;;;6.43;3.80;;;;;;;0.23;64.70;100122.19;5079002;28;20788;-81
2024/01/17 01:36:33;;;;;;;6.60;3.90;;;;;;;0.30;64.97;100100.94;5080376;28;20229;-81
2024/01/17 01:38:59;;;;;;;5.03;3.60;;;;;;;0.27;63.41;100106.00;5079624;28;20265;-81
2024/01/17 01:41:27;;;;;;;7.03;3.23;;;;;;;0.23;62.84;100124.75;5080166;28;20200;-81
2024/01/17 01:43:53;;;;;;;5.70;3.70;;;;;;;0.19;62.67;100136.66;5079773;28;20726;-81
2024/01/17 01:46:24;;;;;;;5.50;3.00;;;;;;;0.32;63.85;100121.50;5079826;28;20233;-81
2024/01/17 01:48:51;;;;;;;3.60;3.13;;;;;;;0.24;64.09;100121.38;5079000;28;20625;-81
2024/01/17 01:51:18;;;;;;;4.43;3.60;;;;;;;0.31;63.46;100115.50;5079853;28;20687;-81
2024/01/17 01:53:48;;;;;;;4.40;4.00;;;;;;;0.45;63.96;100105.47;5071792;28;20206;-81
2024/01/17 01:56:19;;;;;;;5.27;3.20;;;;;;;0.36;62.93;100121.59;5079873;28;20229;-80
2024/01/17 01:58:49;;;;;;;3.83;3.27;;;;;;;0.16;62.57;100136.63;5079934;28;20200;-81
2024/01/17 02:01:18;;;;;;;4.00;3.20;;;;;;;0.12;62.43;100139.97;5080811;28;20211;-80
2024/01/17 02:03:47;;;;;;;6.57;3.87;;;;;;;-0.01;62.05;100159.41;5087392;28;20208;-80
2024/01/17 02:06:14;;;;;;;3.73;3.00;;;;;;;0.14;62.26;100155.38;5085769;28;20245;-78
2024/01/17 02:08:40;;;;;;;4.57;3.10;;;;;;;-0.12;62.60;100167.72;5078609;28;20204;-78
2024/01/17 02:11:07;;;;;;;3.87;2.83;;;;;;;-0.03;62.68;100161.06;5079891;28;20239;-80
2024/01/17 02:13:33;;;;;;;3.20;2.67;;;;;;;0.12;63.87;100150.25;5070923;28;20216;-81
2024/01/17 02:16:02;;;;;;;5.17;3.00;;;;;;;0.13;63.61;100117.75;5069787;28;20738;-80
2024/01/17 02:18:28;;;;;;;4.63;3.10;;;;;;;0.08;64.20;100109.09;5077182;28;20212;-80
2024/01/17 02:20:55;;;;;;;3.63;3.03;;;;;;;0.15;64.97;100087.84;5077089;28;20205;-80
2024/01/17 02:23:22;;;;;;;5.50;3.30;;;;;;;0.15;65.47;100060.47;5076637;28;20258;-80
2024/01/17 02:25:50;;;;;;;3.30;3.00;;;;;;;-0.08;63.83;100066.88;5078628;28;20235;-80
2024/01/17 02:28:16;;;;;;;3.70;2.93;;;;;;;-0.08;64.82;100065.22;5078270;28;20213;-81
2024/01/17 02:30:44;;;;;;;9.87;3.00;;;;;;;-0.27;63.67;100061.44;5078156;28;20258;-81
2024/01/17 02:33:10;;;;;;;3.17;2.87;;;;;;;-0.14;64.66;100044.59;5077266;28;20781;-79
2024/01/17 02:35:38;;;;;;;4.87;3.20;;;;;;;-0.42;63.65;100046.63;5077704;28;20200;-80
2024/01/17 02:38:04;;;;;;;3.23;2.93;;;;;;;-0.54;64.47;100041.25;5076931;28;20264;-79
2024/01/17 02:40:30;;;;;;;5.37;3.03;;;;;;;-0.38;64.67;100018.47;5076741;28;20276;-81
2024/01/17 02:42:58;;;;;;;3.43;3.13;;;;;;;-0.30;64.83;99998.97;5076757;28;20721;-80
2024/01/17 02:45:25;;;;;;;8.10;3.37;;;;;;;-0.11;65.04;99982.19;5077066;28;20212;-81
2024/01/17 02:47:51;;;;;;;5.03;3.37;;;;;;;-0.14;64.13;99994.97;5076714;28;20307;-81
2024/01/17 02:50:17;;;;;;;4.30;3.17;;;;;;;-0.15;63.10;99995.81;5076751;28;20255;-80
2024/01/17 02:52:44;;;;;;;4.90;3.47;;;;;;;-0.07;63.73;99992.53;5068013;28;20251;-80
2024/01/17 02:55:13;;;;;;;5.33;3.73;;;;;;;-0.07;63.21;100007.06;5056369;28;20350;-80
2024/01/17 02:57:39;;;;;;;5.97;3.60;;;;;;;-0.22;62.76;100016.22;5056439;28;20275;-80
2024/01/17 03:00:09;;;;;;;6.20;3.83;;;;;;;-0.05;63.36;100013.94;5076799;28;20205;-80
2024/01/17 03:02:35;;;;;;;5.67;3.63;;;;;;;0.01;64.14;99997.78;5077399;28;20212;-80
2024/01/17 03:05:03;;;;;;;5.20;3.33;;;;;;;-0.20;64.29;100016.22;5076309;28;20254;-81
2024/01/17 03:07:29;;;;;;;4.20;3.60;;;;;;;-0.29;63.29;100009.25;5076676;28;20232;-80
2024/01/17 03:09:56;;;;;;;3.77;3.13;;;;;;;-0.42;62.72;100027.81;5076758;28;20258;-80
2024/01/17 03:12:23;;;;;;;7.20;3.50;;;;;;;-0.21;62.93;100020.50;5077646;28;20205;-81
2024/01/17 03:14:49;;;;;;;4.87;3.40;;;;;;;-0.36;62.37;100034.75;5076295;28;20647;-81
2024/01/17 03:17:17;;;;;;;4.13;3.27;;;;;;;-0.38;63.73;100037.28;5077193;28;20220;-80
2024/01/17 03:19:44;;;;;;;5.27;3.40;;;;;;;-0.30;64.43;100001.53;5076547;28;20205;-80
2024/01/17 03:22:10;;;;;;;3.80;3.50;;;;;;;-0.22;64.38;99980.31;5072623;28;20251;-80
2024/01/17 03:24:37;;;;;;;4.77;3.67;;;;;;;-0.35;63.32;99969.81;5063615;28;20255;-80
2024/01/17 03:27:04;;;;;;;5.77;4.07;;;;;;;-0.26;63.21;99972.53;5077747;28;20327;-81
2024/01/17 03:29:30;;;;;;;4.63;4.23;;;;;;;-0.13;64.81;99946.25;5080741;28;20197;-80
2024/01/17 03:31:57;;;;;;;4.10;3.57;;;;;;;-0.01;64.69;99928.50;5077149;28;20723;-80
2024/01/17 03:34:24;;;;;;;6.13;4.63;;;;;;;-0.08;62.96;99920.66;5076008;28;20752;-81
2024/01/17 03:36:51;;;;;;;4.90;4.10;;;;;;;0.09;64.10;99911.53;5078081;28;20588;-80
2024/01/17 03:39:17;;;;;;;4.50;4.07;;;;;;;0.12;62.98;99919.28;5077088;28;20227;-81
2024/01/17 03:41:44;;;;;;;4.50;3.70;;;;;;;0.16;63.63;99905.66;5077127;28;20201;-80
2024/01/17 03:44:10;;;;;;;7.10;3.90;;;;;;;0.16;63.48;99897.97;5076706;28;20230;-80
2024/01/17 03:46:36;;;;;;;4.63;3.70;;;;;;;0.19;63.78;99890.28;5077148;28;20220;-80
2024/01/17 03:49:03;;;;;;;6.03;4.33;;;;;;;0.16;63.92;99890.25;5075505;28;20203;-81
2024/01/17 03:51:31;;;;;;;6.40;4.23;;;;;;;0.21;64.45;99874.06;5069649;28;20206;-80
2024/01/17 03:53:57;;;;;;;7.37;4.70;;;;;;;0.12;64.50;99864.50;5065812;28;20205;-80
2024/01/17 03:56:24;;;;;;;9.33;4.73;;;;;;;0.02;65.09;99866.13;5077448;28;20213;-80
2024/01/17 03:58:51;;;;;;;7.83;5.33;;;;;;;0.01;65.53;99840.44;5076382;28;20639;-80
2024/01/17 04:01:17;;;;;;;5.83;4.93;;;;;;;-0.02;66.37;99824.16;5077609;28;20663;-80
2024/01/17 04:03:45;;;;;;;5.47;4.93;;;;;;;-0.15;66.86;99803.44;5075139;28;20205;-80
2024/01/17 04:06:11;;;;;;;7.70;4.50;;;;;;;-0.30;67.74;99781.00;5075645;28;20674;-81
2024/01/17 04:08:39;;;;;;;5.80;5.30;;;;;;;-0.26;68.02;99767.38;5079778;28;20781;-80
2024/01/17 04:11:06;;;;;;;6.40;5.20;;;;;;;-0.17;67.46;99749.56;5080907;28;20208;-80
2024/01/17 04:13:32;;;;;;;7.80;4.80;;;;;;;-0.21;68.12;99738.38;5081686;28;20230;-80
2024/01/17 04:15:59;;;;;;;7.00;6.10;;;;;;;-0.18;67.67;99732.44;5080980;28;20217;-80
2024/01/17 04:18:25;;;;;;;6.40;5.73;;;;;;;-0.17;68.62;99721.34;5080052;28;20224;-81
2024/01/17 04:20:52;;;;;;;5.47;4.97;;;;;;;-0.15;68.27;99701.69;5079406;28;20250;-80
2024/01/17 04:23:18;;;;;;;5.70;4.97;;;;;;;-0.21;68.84;99696.50;5081637;28;20227;-80
2024/01/17 04:25:46;;;;;;;8.60;5.27;;;;;;;-0.21;68.47;99674.28;5080863;28;20207;-81
2024/01/17 04:28:13;;;;;;;6.00;5.40;;;;;;;-0.21;69.14;99668.28;5068817;28;20205;-80
2024/01/17 04:30:40;;;;;;;7.10;5.97;;;;;;;-0.19;68.49;99650.38;5076292;28;20627;-80
2024/01/17 04:33:09;;;;;;;7.90;6.77;;;;;;;-0.13;68.08;99653.00;5079563;28;20200;-80
2024/01/17 04:35:35;;;;;;;7.63;6.90;;;;;;;-0.16;67.96;99658.06;5080167;28;20205;-80
2024/01/17 04:38:01;;;;;;;9.90;6.97;;;;;;;-0.16;68.51;99640.97;5080202;28;20193;-81
2024/01/17 04:40:28;;;;;;;9.10;7.17;;;;;;;-0.19;68.31;99642.66;5079991;28;20201;-80
2024/01/17 04:42:55;;;;;;;7.20;6.50;;;;;;;-0.15;68.80;99639.28;5079718;28;20201;-80
2024/01/17 04:45:22;;;;;;;7.87;7.00;;;;;;;-0.15;69.32;99629.03;5079475;28;20667;-80
2024/01/17 04:47:48;;;;;;;8.40;6.87;;;;;;;-0.13;68.70;99633.31;5078762;28;20266;-80
2024/01/17 04:50:15;;;;;;;9.17;7.20;;;;;;;-0.08;68.32;99620.53;5078689;28;20627;-80
2024/01/17 04:52:42;;;;;;;8.93;7.50;;;;;;;-0.12;68.56;99632.50;5077352;28;20667;-80
2024/01/17 04:55:08;;;;;;;8.33;6.80;;;;;;;-0.08;68.13;99623.09;5079103;28;20209;-80
2024/01/17 04:57:35;;;;;;;9.77;6.80;;;;;;;-0.09;68.85;99623.97;5079059;28;20216;-80
2024/01/17 05:00:04;;;;;;;8.30;7.40;;;;;;;-0.06;69.20;99609.47;5078003;28;20204;-80
2024/01/17 05:02:30;;;;;;;10.23;7.60;;;;;;;-0.09;68.71;99598.31;5080191;28;20205;-80
2024/01/17 05:04:57;;;;;;;9.50;7.27;;;;;;;-0.13;69.48;99588.88;5076509;28;20200;-80
2024/01/17 05:07:23;;;;;;;9.03;7.23;;;;;;;-0.10;69.33;99589.78;5078633;28;20232;-80
2024/01/17 05:09:49;;;;;;;8.53;7.00;;;;;;;-0.16;68.56;99594.81;5078959;28;20209;-80
2024/01/17 05:12:16;;;;;;;9.83;8.27;;;;;;;-0.14;68.58;99593.16;5078759;28;20205;-80
2024/01/17 05:14:42;;;;;;;10.93;7.40;;;;;;;-0.11;68.16;99594.88;5078574;28;20201;-81
2024/01/17 05:17:10;;;;;;;10.00;7.70;;;;;;;-0.18;68.89;99593.94;5078041;28;20217;-79
2024/01/17 05:19:37;;;;;;;10.53;8.23;;;;;;;-0.11;68.28;99580.34;5076975;28;20231;-80
2024/01/17 05:22:04;;;;;;;10.70;7.60;;;;;;;-0.06;68.15;99583.81;5076244;28;20204;-80
2024/01/17 05:24:30;;;;;;;9.50;7.97;;;;;;;-0.07;68.07;99579.53;5078628;28;20213;-79
2024/01/17 05:26:57;;;;;;;8.50;7.20;;;;;;;-0.18;68.45;99568.28;5077578;28;20232;-79
2024/01/17 05:29:23;;;;;;;11.07;8.17;;;;;;;-0.33;68.30;99570.72;5078382;28;20330;-81
2024/01/17 05:31:49;;;;;;;9.13;7.37;;;;;;;-0.29;67.88;99557.06;5062013;28;20240;-80
2024/01/17 05:34:17;;;;;;;8.33;7.53;;;;;;;-0.32;68.84;99557.88;5077608;28;20208;-80
2024/01/17 05:36:44;;;;;;;8.70;7.77;;;;;;;-0.21;68.27;99558.00;5078740;28;20713;-80
2024/01/17 05:39:12;;;;;;;7.27;6.57;;;;;;;-0.16;69.13;99547.78;5077603;28;20231;-79
2024/01/17 05:41:38;;;;;;;8.57;7.00;;;;;;;-0.18;68.83;99549.47;5079472;28;20204;-80
2024/01/17 05:44:05;;;;;;;8.23;7.37;;;;;;;-0.10;68.18;99540.16;5078538;28;20220;-80
2024/01/17 05:46:32;;;;;;;8.53;7.63;;;;;;;-0.10;69.00;99543.59;5079164;28;20236;-80
2024/01/17 05:48:59;;;;;;;8.63;7.27;;;;;;;-0.14;68.84;99530.72;5077478;28;20622;-80
2024/01/17 05:51:27;;;;;;;10.10;7.83;;;;;;;-0.22;69.99;99516.13;5076511;28;20576;-81
2024/01/17 05:53:53;;;;;;;8.47;7.23;;;;;;;-0.12;70.52;99504.25;5078548;28;20243;-81
2024/01/17 05:56:19;;;;;;;8.17;7.30;;;;;;;-0.12;70.13;99494.00;5078481;28;20224;-80
2024/01/17 05:58:46;;;;;;;7.10;6.40;;;;;;;-0.08;69.77;99485.47;5078275;28;20204;-80
2024/01/17 06:01:13;;;;;;;10.50;8.77;;;;;;;-0.09;69.17;99498.28;5078931;28;20200;-80
2024/01/17 06:03:40;;;;;;;7.97;7.23;;;;;;;-0.09;68.50;99488.88;5078372;28;20239;-80
2024/01/17 06:06:07;;;;;;;8.17;6.90;;;;;;;-0.13;67.94;99497.41;5078772;28;20762;-80
2024/01/17 06:08:35;;;;;;;7.10;6.40;;;;;;;-0.17;67.75;99502.50;5072637;28;20217;-79
2024/01/17 06:11:01;;;;;;;7.63;6.30;;;;;;;-0.31;68.34;99508.34;5066010;28;20251;-80
2024/01/17 06:13:27;;;;;;;8.53;6.83;;;;;;;-0.16;68.62;99497.34;5078046;28;20209;-80
2024/01/17 06:15:54;;;;;;;9.67;6.80;;;;;;;-0.08;67.90;99495.75;5078196;28;20274;-80
2024/01/17 06:18:20;;;;;;;8.17;7.07;;;;;;;-0.09;68.56;99499.13;5077270;28;20223;-80
2024/01/17 06:20:47;;;;;;;7.20;6.60;;;;;;;-0.06;68.54;99494.03;5077301;28;20227;-80
2024/01/17 06:23:13;;;;;;;8.00;6.60;;;;;;;-0.07;68.65;99491.47;5074806;28;20240;-80
2024/01/17 06:25:41;;;;;;;7.80;7.00;;;;;;;-0.08;68.72;99489.72;5063290;28;20201;-80
2024/01/17 06:28:08;;;;;;;8.63;6.63;;;;;;;-0.10;67.78;99499.13;5077696;28;20229;-80
2024/01/17 06:30:34;;;;;;;8.50;6.70;;;;;;;-0.06;68.43;99501.75;5077234;28;20197;-80
2024/01/17 06:33:00;;;;;;;9.37;7.07;;;;;;;-0.09;68.81;99499.13;5078843;28;20231;-80
2024/01/17 06:35:27;;;;;;;11.10;6.83;;;;;;;-0.06;68.20;99494.03;5077867;28;20200;-80
2024/01/17 06:37:53;;;;;;;7.43;6.73;;;;;;;-0.06;66.75;99496.59;5078580;28;20247;-80
2024/01/17 06:40:19;;;;;;;6.77;6.07;;;;;;;-0.01;67.46;99507.75;5077903;28;20633;-80
2024/01/17 06:42:47;;;;;;;6.97;6.33;;;;;;;0.04;68.76;99494.09;5078961;28;20752;-80
2024/01/17 06:45:14;;;;;;;8.17;7.37;;;;;;;0.03;68.33;99487.28;5076001;28;20208;-80
2024/01/17 06:47:40;;;;;;;6.57;5.97;;;;;;;-0.01;69.25;99479.53;5064693;28;20586;-80
2024/01/17 06:50:07;;;;;;;9.53;6.90;;;;;;;-0.07;69.12;99473.50;5077950;28;20740;-80
2024/01/17 06:52:34;;;;;;;11.50;7.85;;;;;;;-0.15;68.37;99462.31;5074187;28;20426;-80
2024/01/17 06:55:00;;;;;;;7.20;6.50;;;;;;;-0.17;68.75;99466.59;5078659;28;20674;-80
2024/01/17 06:57:26;;;;;;;12.77;7.33;;;;;;;-0.08;68.20;99447.00;5078204;28;20659;-80
2024/01/17 06:59:54;;;;;;;8.47;7.57;;;;;;;-0.22;69.20;99453.69;5065772;28;20740;-80
2024/01/17 07:02:21;;;;;;;6.87;6.17;;;;;;;-0.15;69.20;99440.09;5078504;28;20303;-80
2024/01/17 07:04:47;;;;;;;7.53;6.80;;;;;;;-0.12;69.90;99431.56;5077629;28;20258;-80
2024/01/17 07:07:13;;;;;;;7.40;6.70;;;;;;;-0.23;71.39;99419.50;5078241;28;20699;-80
2024/01/17 07:09:41;;;;;;;7.93;6.53;;;;;;;-0.22;71.03;99390.47;5077844;28;20733;-80
2024/01/17 07:12:07;;;;;;;6.73;6.13;;;;;;;-0.47;72.00;99380.88;5078370;28;20262;-80
2024/01/17 07:14:34;;;;;;;7.50;6.73;;;;;;;-0.46;72.78;99349.25;5078237;28;20204;-79
2024/01/17 07:17:02;;;;;;;10.40;7.37;;;;;;;-0.39;73.32;99314.28;5078448;28;20778;-80
2024/01/17 07:19:28;;;;;;;11.00;6.50;;;;;;;-0.39;73.36;99301.47;5077330;28;20201;-80
2024/01/17 07:21:55;;;;;;;8.47;6.83;;;;;;;-0.36;72.40;99273.25;5074551;28;20212;-80
2024/01/17 07:24:21;;;;;;;8.60;6.67;;;;;;;-0.34;71.90;99272.41;5070369;28;20201;-81
2024/01/17 07:26:48;;;;;;;8.33;7.23;;;;;;;-0.34;71.52;99274.97;5078460;28;20580;-82
2024/01/17 07:29:14;;;;;;;9.77;7.37;;;;;;;-0.33;71.45;99270.72;5077783;28;20621;-81
2024/01/17 07:31:40;;;;;;;7.67;6.70;;;;;;;-0.32;71.91;99273.28;5077440;28;20671;-81
2024/01/17 07:34:08;;;;;;;9.60;7.10;;;;;;;-0.33;71.59;99265.59;5077163;28;20264;-81
2024/01/17 07:36:34;;;;;;;8.43;6.37;;;;;;;-0.33;71.16;99273.28;5077971;28;20631;-81
2024/01/17 07:39:01;;;;;;;7.80;6.73;;;;;;;-0.37;71.17;99276.69;5077778;28;20298;-81
2024/01/17 07:41:29;;;;;;;11.00;6.60;;;;;;;-0.35;70.77;99285.25;5062204;28;20201;-81
2024/01/17 07:43:55;;;;;;;7.97;6.97;;;;;;;-0.35;70.17;99295.50;5078691;28;20270;-81
2024/01/17 07:46:22;;;;;;;7.10;6.40;;;;;;;-0.30;69.60;99304.91;5078450;28;20221;-82
2024/01/17 07:48:48;;;;;;;9.30;6.60;;;;;;;-0.24;69.92;99316.91;5079189;28;20246;-82
2024/01/17 07:51:16;;;;;;;10.73;6.40;;;;;;;-0.20;68.93;99328.91;5063277;28;20209;-81
2024/01/17 07:53:42;;;;;;;7.33;6.53;;;;;;;-0.19;69.70;99334.94;5081507;28;20223;-81
2024/01/17 07:56:09;;;;;;;9.80;6.47;;;;;;;-0.26;68.54;99340.00;5093963;28;20224;-82
2024/01/17 07:58:35;;;;;;;8.17;6.43;;;;;;;-0.19;68.14;99353.72;5095631;28;20197;-81
2024/01/17 08:01:02;;;;;;;6.47;5.83;;;;;;;-0.27;67.77;99361.38;5093972;28;20205;-81
2024/01/17 08:03:29;;;;;;;9.03;6.67;;;;;;;-0.21;68.35;99365.69;5063369;28;20201;-82
2024/01/17 08:05:55;;;;;;;10.83;6.10;;;;;;;-0.22;67.85;99366.50;5079790;28;20224;-81
2024/01/17 08:08:23;;;;;;;6.97;5.67;;;;;;;-0.35;68.42;99373.28;5068372;28;20255;-83
2024/01/17 08:10:49;;;;;;;7.13;6.43;;;;;;;-0.12;68.50;99357.19;5078253;28;20196;-82
2024/01/17 08:13:17;;;;;;;7.07;6.20;;;;;;;-0.04;68.61;99352.94;5082801;28;20201;-83
2024/01/17 08:15:43;;;;;;;6.27;5.40;;;;;;;-0.05;67.94;99352.09;5087159;28;20204;-82
2024/01/17 08:18:09;;;;;;;7.83;5.27;;;;;;;0.05;67.71;99349.59;5092748;28;20197;-82
2024/01/17 08:20:36;;;;;;;6.43;5.50;;;;;;;-0.09;67.55;99359.78;5078398;28;20201;-82
2024/01/17 08:23:02;;;;;;;6.13;5.53;;;;;;;0.08;67.73;99357.31;5077321;28;20208;-81
2024/01/17 08:25:31;;;;;;;6.43;5.63;;;;;;;0.01;68.56;99363.25;5084938;28;20201;-81
2024/01/17 08:27:59;;;;;;;8.43;6.23;;;;;;;0.11;67.95;99347.06;5093204;28;20240;-82
2024/01/17 08:30:26;;;;;;;7.30;5.93;;;;;;;0.15;67.27;99356.50;5093565;28;20252;-82
2024/01/17 08:32:53;;;;;;;10.60;6.37;;;;;;;0.22;66.84;99362.50;5093088;28;20209;-82
2024/01/17 08:35:19;;;;;;;6.27;5.67;;;;;;;0.22;67.14;99355.69;5092929;28;20205;-80
2024/01/17 08:37:46;;;;;;;7.23;5.67;;;;;;;0.25;67.58;99354.84;5085961;28;20213;-83
2024/01/17 08:40:13;;;;;;;8.37;5.60;;;;;;;0.29;67.38;99349.72;5073891;28;20209;-82
2024/01/17 08:42:44;;;;;;;7.03;6.13;;;;;;;0.31;66.97;99347.16;5092336;28;20204;-79
2024/01/17 08:45:11;;;;;;;6.47;5.87;;;;;;;0.34;66.72;99344.63;5092723;28;20205;-80
2024/01/17 08:47:38;;;;;;;6.90;6.23;;;;;;;0.36;66.59;99341.22;5081735;28;20297;-79
2024/01/17 08:50:06;;;;;;;7.37;6.53;;;;;;;0.39;67.75;99338.66;5079092;28;20675;-79
2024/01/17 08:52:32;;;;;;;6.50;5.90;;;;;;;0.45;68.19;99321.56;5085479;28;20205;-79
2024/01/17 08:55:02;;;;;;;6.63;5.93;;;;;;;0.53;67.66;99314.75;5082336;28;20214;-79
2024/01/17 08:57:28;;;;;;;7.67;7.07;;;;;;;0.60;67.16;99303.66;5093380;28;20225;-80
2024/01/17 08:59:56;;;;;;;7.47;6.00;;;;;;;0.59;67.41;99307.06;5093685;28;20196;-80
2024/01/17 09:02:23;;;;;;;6.60;6.00;;;;;;;0.68;66.90;99293.41;5092735;28;20205;-79
2024/01/17 09:04:49;;;;;;;6.60;5.90;;;;;;;0.62;67.63;99295.97;5090655;28;20197;-78
2024/01/17 09:07:16;;;;;;;8.27;6.67;;;;;;;0.76;66.69;99292.56;5086347;28;20240;-78
2024/01/17 09:09:42;;;;;;;8.83;8.03;;;;;;;0.76;65.54;99296.84;5083149;28;20258;-78
2024/01/17 09:12:12;;;;;;;8.17;6.37;;;;;;;0.81;65.34;99304.56;5065499;28;20232;-77
2024/01/17 09:14:41;;;;;;;13.33;12.17;;;;;;;0.78;65.92;99315.69;5075943;28;20201;-77
2024/01/17 09:17:11;;;;;;;11.37;10.23;;;;;;;0.86;65.15;99320.84;5088466;28;20292;-78
2024/01/17 09:19:37;;;;;;;7.60;6.80;;;;;;;0.87;65.38;99317.41;5072987;28;20197;-78
2024/01/17 09:22:04;;;;;;;12.83;9.53;;;;;;;0.92;65.15;99326.84;5081926;28;20274;-80
2024/01/17 09:24:31;;;;;;;10.00;9.00;;;;;;;0.95;65.85;99333.69;5080685;28;20315;-78
2024/01/17 09:26:57;;;;;;;8.37;7.17;;;;;;;0.97;64.57;99330.28;5075178;28;20217;-77
2024/01/17 09:29:23;;;;;;;7.27;6.67;;;;;;;1.04;64.36;99330.28;5077535;28;20652;-77
2024/01/17 09:31:50;;;;;;;9.50;7.43;;;;;;;1.01;64.08;99338.84;5085761;28;20246;-78
2024/01/17 09:34:18;;;;;;;7.13;6.33;;;;;;;0.99;64.30;99356.84;5079461;28;20711;-77
2024/01/17 09:36:44;;;;;;;8.97;7.93;;;;;;;1.06;63.96;99360.28;5083628;28;20642;-78
2024/01/17 09:39:10;;;;;;;7.50;6.30;;;;;;;1.11;63.83;99355.13;5085077;28;20254;-78
2024/01/17 09:41:37;;;;;;;7.13;6.00;;;;;;;1.17;63.48;99355.16;5090250;28;20197;-79
2024/01/17 09:44:04;;;;;;;6.77;6.07;;;;;;;1.10;63.67;99364.56;5093254;28;20201;-78
2024/01/17 09:46:34;;;;;;;7.13;6.40;;;;;;;1.15;62.59;99369.69;5086402;28;20255;-79
2024/01/17 09:49:00;;;;;;;7.43;6.17;;;;;;;1.17;63.08;99375.72;5086965;28;20246;-78
2024/01/17 09:51:32;;;;;;;6.87;6.10;;;;;;;1.16;63.21;99379.97;5090116;28;20204;-78
2024/01/17 09:53:59;;;;;;;8.80;6.97;;;;;;;1.18;63.67;99375.69;5072485;28;20208;-78
2024/01/17 09:56:30;;;;;;;7.17;6.47;;;;;;;1.29;63.54;99374.84;5075833;28;20274;-78
2024/01/17 09:58:59;;;;;;;7.73;5.70;;;;;;;1.32;62.97;99362.88;5075289;28;20235;-79
2024/01/17 10:01:28;;;;;;;6.73;5.80;;;;;;;1.31;62.15;99368.00;5068341;28;20278;-78
2024/01/17 10:03:56;;;;;;;7.20;6.50;;;;;;;1.07;62.31;99384.25;5073567;28;20204;-78
2024/01/17 10:06:24;;;;;;;9.00;6.30;;;;;;;1.22;63.30;99376.56;5071788;28;20235;-78
2024/01/17 10:08:53;;;;;;;7.43;6.50;;;;;;;1.26;61.95;99374.88;5052949;28;20304;-81
2024/01/17 10:11:20;;;;;;;9.87;6.50;;;;;;;1.22;61.89;99374.00;5062598;28;20231;-78
2024/01/17 10:13:47;;;;;;;7.93;5.90;;;;;;;1.15;62.17;99382.53;5068979;28;20205;-78
2024/01/17 10:16:13;;;;;;;8.67;6.50;;;;;;;1.25;63.67;99360.28;5061599;28;20303;-78
2024/01/17 10:18:40;;;;;;;8.07;7.27;;;;;;;1.25;62.55;99350.88;5072250;28;20197;-78
2024/01/17 10:21:06;;;;;;;8.53;7.73;;;;;;;1.33;61.94;99349.19;5073521;28;20568;-78
2024/01/17 10:23:33;;;;;;;8.03;6.67;;;;;;;1.10;61.29;99356.00;5065599;28;20201;-77
2024/01/17 10:26:01;;;;;;;7.13;6.53;;;;;;;1.33;61.58;99359.47;5073038;28;20236;-78
2024/01/17 10:28:27;;;;;;;8.23;6.83;;;;;;;1.40;61.32;99342.31;5072599;28;20221;-78
2024/01/17 10:30:53;;;;;;;10.30;7.30;;;;;;;1.28;61.15;99357.72;5073125;28;20276;-78
2024/01/17 10:33:20;;;;;;;7.70;6.97;;;;;;;1.43;62.54;99344.03;5071595;28;20216;-78
2024/01/17 10:35:48;;;;;;;10.43;7.33;;;;;;;1.54;61.45;99337.19;5072589;28;20258;-78
2024/01/17 10:38:15;;;;;;;6.90;6.00;;;;;;;1.58;61.66;99344.03;5058243;28;20236;-77
2024/01/17 10:40:44;;;;;;;7.33;6.63;;;;;;;1.61;60.71;99354.31;5073266;28;20196;-79
2024/01/17 10:43:13;;;;;;;6.80;5.90;;;;;;;1.71;61.48;99356.03;5071848;28;20208;-77
2024/01/17 10:45:42;;;;;;;7.17;6.20;;;;;;;1.81;61.72;99358.59;5071527;28;20204;-77
2024/01/17 10:48:09;;;;;;;8.57;7.67;;;;;;;1.32;59.24;99385.16;5071471;28;20589;-79
2024/01/17 10:50:35;;;;;;;8.10;7.43;;;;;;;1.54;60.99;99379.16;5074187;28;20204;-79
2024/01/17 10:53:04;;;;;;;8.57;6.83;;;;;;;1.54;59.73;99366.31;5069154;28;20208;-80
2024/01/17 10:55:34;;;;;;;8.53;7.73;;;;;;;1.73;60.52;99362.03;5072842;28;20211;-79
2024/01/17 10:58:03;;;;;;;9.57;7.03;;;;;;;1.89;61.63;99337.16;5074350;28;20205;-79
2024/01/17 11:00:32;;;;;;;9.30;8.50;;;;;;;1.99;60.81;99322.53;5064856;28;20202;-79
2024/01/17 11:02:59;;;;;;;74.87;56.97;;;;;;;2.13;60.09;99328.50;5069424;28;20215;-79
2024/01/17 11:05:30;;;;;;;15.43;13.90;;;;;;;2.20;58.95;99344.81;5072529;28;20240;-79
2024/01/17 11:07:59;;;;;;;8.23;7.10;;;;;;;2.13;59.16;99364.53;5059179;28;20292;-78
2024/01/17 11:10:26;;;;;;;9.43;7.17;;;;;;;2.24;58.62;99366.22;5075251;28;20227;-79
2024/01/17 11:12:53;;;;;;;8.20;7.40;;;;;;;2.25;58.56;99379.09;5071078;28;20279;-79
2024/01/17 11:15:22;;;;;;;10.10;8.70;;;;;;;2.29;58.90;99374.81;5063713;28;20339;-79
2024/01/17 11:17:52;;;;;;;8.77;7.27;;;;;;;2.31;58.38;99373.94;5058604;28;20220;-79
2024/01/17 11:20:18;;;;;;;7.53;6.83;;;;;;;2.35;58.86;99364.50;5072587;28;20270;-79
2024/01/17 11:22:48;;;;;;;9.20;8.30;;;;;;;2.32;57.24;99388.53;5071613;28;20213;-79
2024/01/17 11:25:21;;;;;;;8.90;8.10;;;;;;;2.26;57.00;99408.28;5070539;28;20201;-79
2024/01/17 11:27:54;;;;;;;9.60;8.70;;;;;;;1.95;57.33;99427.19;5057857;28;20270;-79
2024/01/17 11:30:33;;;;;;;8.07;7.37;;;;;;;1.98;57.92;99426.34;5074466;28;20254;-79
2024/01/17 11:33:07;;;;;;;7.70;6.90;;;;;;;2.13;58.24;99410.03;5080543;28;20200;-78